Time;durP1;ratioP1;P1;durP2;ratioP2;P2;SDS_P1;SDS_P2;PMS_P1;PMS_P2;Temp;Humidity;BMP_temperature;BMP_pressure;BME280_temperature;BME280_humidity;BME280_pressure;Samples;Min_cycle;Max_cycle;Signal;HPM_P1;HPM_P2
2021/05/01 00:01:10;;;;;;;6.10;4.55;;;;;;;14.01;66.00;98488.38;3510836;28;20453;-72
2021/05/01 00:02:51;;;;;;;6.18;5.15;;;;;;;14.00;66.30;98496.69;3510557;28;20064;-72
2021/05/01 00:04:32;;;;;;;6.25;4.85;;;;;;;14.05;66.25;98494.06;3511254;28;20050;-74
2021/05/01 00:06:13;;;;;;;6.05;4.45;;;;;;;14.07;66.51;98497.28;3509874;28;20051;-73
2021/05/01 00:07:54;;;;;;;7.43;5.65;;;;;;;14.09;66.42;98503.22;3510142;28;20130;-74
2021/05/01 00:09:35;;;;;;;5.72;5.13;;;;;;;14.10;66.45;98499.50;3510004;28;20149;-73
2021/05/01 00:11:18;;;;;;;5.75;5.10;;;;;;;14.13;66.37;98501.69;3509862;28;20044;-72
2021/05/01 00:12:59;;;;;;;6.13;5.05;;;;;;;14.13;66.13;98499.00;3509611;28;20032;-74
2021/05/01 00:14:40;;;;;;;8.88;5.28;;;;;;;14.19;66.29;98506.03;3509684;28;20067;-75
2021/05/01 00:16:20;;;;;;;5.90;5.30;;;;;;;14.17;66.64;98505.47;3510904;28;20422;-74
2021/05/01 00:18:01;;;;;;;6.95;5.18;;;;;;;14.14;66.47;98503.28;3510464;28;20047;-75
2021/05/01 00:19:42;;;;;;;8.20;5.90;;;;;;;14.21;66.64;98509.28;3508880;28;20039;-75
2021/05/01 00:21:22;;;;;;;6.03;5.05;;;;;;;14.18;66.30;98505.22;3509608;28;20048;-75
2021/05/01 00:23:03;;;;;;;5.55;4.93;;;;;;;14.23;66.33;98512.53;3509295;28;20043;-72
2021/05/01 00:24:44;;;;;;;5.82;5.22;;;;;;;14.23;66.43;98509.84;3509996;28;20135;-73
2021/05/01 00:26:24;;;;;;;5.50;4.93;;;;;;;14.19;66.36;98503.34;3510971;28;20132;-74
2021/05/01 00:28:05;;;;;;;7.97;5.50;;;;;;;14.19;66.28;98517.56;3509158;28;20458;-72
2021/05/01 00:29:46;;;;;;;6.05;5.05;;;;;;;14.12;66.30;98508.91;3509363;28;20032;-74
2021/05/01 00:31:47;;;;;;;5.97;5.38;;;;;;;14.17;66.35;98524.22;3508879;28;20146;-73
2021/05/01 00:33:27;;;;;;;5.95;5.35;;;;;;;14.14;66.25;98530.09;3509836;28;20039;-73
2021/05/01 00:35:09;;;;;;;5.22;4.53;;;;;;;14.11;66.39;98515.31;3509047;28;20043;-74
2021/05/01 00:36:49;;;;;;;5.22;4.55;;;;;;;14.10;66.54;98528.97;3509911;28;20036;-73
2021/05/01 00:38:30;;;;;;;5.50;4.47;;;;;;;14.10;66.17;98528.97;3511098;28;20040;-75
2021/05/01 00:40:12;;;;;;;6.93;5.30;;;;;;;14.05;66.28;98521.66;3512298;28;20044;-75
2021/05/01 00:41:52;;;;;;;7.78;5.05;;;;;;;14.06;66.05;98528.63;3511846;28;20040;-73
2021/05/01 00:43:33;;;;;;;7.03;5.35;;;;;;;14.02;65.93;98515.97;3512484;28;20040;-75
2021/05/01 00:45:14;;;;;;;5.93;5.28;;;;;;;14.08;65.97;98531.88;3511718;28;20054;-73
2021/05/01 00:46:55;;;;;;;6.63;5.30;;;;;;;14.06;65.76;98531.31;3512000;28;20062;-74
2021/05/01 00:48:35;;;;;;;5.82;4.50;;;;;;;14.07;65.60;98535.63;3511777;28;20047;-78
2021/05/01 00:50:16;;;;;;;5.50;4.35;;;;;;;14.03;65.43;98531.00;3511772;28;20130;-76
2021/05/01 00:51:57;;;;;;;5.88;4.85;;;;;;;13.92;65.50;98528.16;3511178;28;20055;-76
2021/05/01 00:53:39;;;;;;;6.68;5.30;;;;;;;13.96;65.55;98534.69;3511880;28;20395;-75
2021/05/01 00:55:20;;;;;;;5.95;4.68;;;;;;;13.96;65.44;98537.34;3512120;28;20131;-76
2021/05/01 00:57:00;;;;;;;5.23;4.40;;;;;;;13.97;65.32;98551.56;3510360;28;20051;-74
2021/05/01 00:58:41;;;;;;;4.78;4.38;;;;;;;13.96;65.27;98542.72;3511591;28;20044;-74
2021/05/01 01:02:36;;;;;;;5.50;4.50;;;;;;;13.94;64.92;98552.03;3466192;28;20044;-73
2021/05/01 01:04:17;;;;;;;5.20;4.53;;;;;;;13.90;64.82;98557.06;3511629;28;20509;-73
2021/05/01 01:05:58;;;;;;;6.88;4.60;;;;;;;13.84;64.86;98552.69;3511757;28;20570;-74
2021/05/01 01:07:38;;;;;;;4.93;4.40;;;;;;;13.78;64.79;98553.66;3510880;28;20093;-73
2021/05/01 01:09:19;;;;;;;5.15;4.35;;;;;;;13.75;64.87;98564.84;3507377;28;20055;-75
2021/05/01 01:11:00;;;;;;;6.10;4.40;;;;;;;13.73;64.67;98553.56;3511219;28;20521;-74
2021/05/01 01:12:41;;;;;;;4.93;4.43;;;;;;;13.65;64.54;98549.41;3510081;28;20044;-74
2021/05/01 01:14:22;;;;;;;4.72;4.32;;;;;;;13.65;64.37;98559.31;3511358;28;20079;-74
2021/05/01 01:16:03;;;;;;;8.02;4.70;;;;;;;13.59;64.38;98555.75;3511161;28;20134;-76
2021/05/01 01:17:44;;;;;;;11.88;4.30;;;;;;;13.62;64.31;98560.63;3511704;28;20473;-78
2021/05/01 01:19:25;;;;;;;6.20;4.57;;;;;;;13.57;64.21;98562.41;3510690;28;20076;-77
2021/05/01 01:21:06;;;;;;;7.50;4.90;;;;;;;13.51;64.12;98558.84;3511576;28;20043;-74
2021/05/01 01:22:47;;;;;;;4.55;3.83;;;;;;;13.58;64.11;98564.00;3511314;28;20043;-76
2021/05/01 01:24:30;;;;;;;4.88;4.18;;;;;;;13.59;64.10;98563.78;3510565;28;20044;-73
2021/05/01 01:26:11;;;;;;;4.65;3.20;;;;;;;13.58;63.98;98561.34;3511680;28;20585;-73
2021/05/01 01:27:52;;;;;;;4.30;3.90;;;;;;;13.57;63.89;98559.72;3511905;28;20032;-73
2021/05/01 01:29:35;;;;;;;4.67;4.27;;;;;;;13.53;64.15;98565.56;3512728;28;20490;-74
2021/05/01 01:31:16;;;;;;;7.78;4.20;;;;;;;13.42;64.05;98545.00;3511898;28;20451;-75
2021/05/01 01:33:01;;;;;;;5.30;4.40;;;;;;;13.48;64.06;98562.81;3513777;28;20043;-77
2021/05/01 01:34:43;;;;;;;8.65;4.65;;;;;;;13.44;64.10;98564.31;3511398;28;20486;-72
2021/05/01 01:36:24;;;;;;;7.28;3.92;;;;;;;13.43;64.32;98567.25;3493799;28;20051;-75
2021/05/01 01:38:08;;;;;;;4.10;3.45;;;;;;;13.56;64.54;98566.16;3504681;28;20410;-76
2021/05/01 01:39:48;;;;;;;4.25;3.20;;;;;;;13.73;64.59;98569.63;3511230;28;20040;-75
2021/05/01 01:41:29;;;;;;;5.30;3.88;;;;;;;13.87;64.53;98568.28;3511308;28;20036;-76
2021/05/01 01:43:10;;;;;;;3.95;3.55;;;;;;;14.03;63.78;98576.53;3510064;28;20044;-76
2021/05/01 01:44:50;;;;;;;5.22;3.47;;;;;;;14.07;63.69;98577.66;3511037;28;20097;-75
2021/05/01 01:46:33;;;;;;;5.32;4.00;;;;;;;14.05;63.65;98575.25;3509994;28;20044;-75
2021/05/01 01:48:14;;;;;;;4.80;4.30;;;;;;;14.16;63.50;98587.72;3510875;28;20085;-75
2021/05/01 01:49:54;;;;;;;5.30;3.63;;;;;;;14.26;63.68;98581.72;3510829;28;20573;-74
2021/05/01 01:51:35;;;;;;;4.15;3.67;;;;;;;14.31;63.08;98597.88;3510894;28;20055;-75
2021/05/01 01:53:16;;;;;;;3.72;3.42;;;;;;;14.34;62.93;98589.34;3510524;28;20047;-75
2021/05/01 01:54:56;;;;;;;14.68;3.67;;;;;;;14.38;62.79;98603.09;3509686;28;20036;-76
2021/05/01 01:56:37;;;;;;;6.13;4.10;;;;;;;14.37;62.37;98601.44;3511063;28;20044;-74
2021/05/01 01:58:19;;;;;;;3.75;3.33;;;;;;;14.40;62.63;98604.47;3510712;28;20506;-75
2021/05/01 02:00:23;;;;;;;4.35;3.95;;;;;;;14.48;62.67;98607.75;3510270;28;20046;-76
2021/05/01 02:02:04;;;;;;;3.42;3.13;;;;;;;14.54;62.35;98609.50;3510818;28;20054;-75
2021/05/01 02:03:45;;;;;;;4.78;3.45;;;;;;;14.52;61.74;98611.56;3510928;28;20620;-74
2021/05/01 02:05:26;;;;;;;3.85;2.97;;;;;;;14.53;61.96;98614.06;3510976;28;20490;-75
2021/05/01 02:07:09;;;;;;;4.50;3.35;;;;;;;14.53;61.81;98607.84;3509863;28;20040;-75
2021/05/01 02:08:50;;;;;;;3.83;3.53;;;;;;;14.61;61.68;98618.16;3510772;28;20464;-75
2021/05/01 02:10:31;;;;;;;4.55;3.50;;;;;;;14.64;61.55;98624.91;3510086;28;20047;-74
2021/05/01 02:12:12;;;;;;;4.28;3.38;;;;;;;14.59;61.41;98615.75;3509978;28;20427;-74
2021/05/01 02:13:53;;;;;;;6.93;4.10;;;;;;;14.60;61.44;98622.72;3510837;28;20142;-74
2021/05/01 02:15:33;;;;;;;3.05;2.65;;;;;;;14.61;61.33;98618.16;3510298;28;20039;-73
2021/05/01 02:17:14;;;;;;;4.25;3.70;;;;;;;14.64;61.23;98632.94;3510155;28;20040;-74
2021/05/01 02:18:55;;;;;;;5.18;3.58;;;;;;;14.60;61.00;98633.44;3510139;28;20394;-74
2021/05/01 02:20:38;;;;;;;3.22;2.85;;;;;;;14.57;61.05;98630.44;3510542;28;20567;-77
2021/05/01 02:22:22;;;;;;;3.83;3.38;;;;;;;14.55;60.68;98633.38;3509400;28;20044;-75
2021/05/01 02:24:03;;;;;;;3.78;3.15;;;;;;;14.54;60.87;98639.00;3510544;28;20417;-76
2021/05/01 02:25:43;;;;;;;3.75;3.42;;;;;;;14.46;60.79;98634.03;3495829;28;20051;-75
2021/05/01 02:27:24;;;;;;;4.78;3.15;;;;;;;14.45;61.19;98643.09;3504074;28;20399;-75
2021/05/01 02:29:09;;;;;;;5.90;2.97;;;;;;;14.43;61.00;98638.00;3510621;28;20052;-76
2021/05/01 02:30:56;;;;;;;3.20;2.90;;;;;;;14.45;61.24;98640.41;3510508;28;20506;-74
2021/05/01 02:32:37;;;;;;;6.60;4.07;;;;;;;14.49;61.18;98639.69;3510428;28;20040;-75
2021/05/01 02:34:18;;;;;;;4.47;4.05;;;;;;;14.58;60.78;98648.16;3510642;28;20039;-75
2021/05/01 02:35:59;;;;;;;5.78;3.72;;;;;;;14.64;60.70;98657.91;3510283;28;20100;-74
2021/05/01 02:37:41;;;;;;;5.53;3.67;;;;;;;14.66;60.45;98654.97;3510617;28;20048;-73
2021/05/01 02:39:21;;;;;;;11.90;3.70;;;;;;;14.60;60.31;98660.25;3510553;28;20119;-74
2021/05/01 02:41:03;;;;;;;3.35;2.95;;;;;;;14.64;60.59;98665.13;3509831;28;20089;-74
2021/05/01 02:42:44;;;;;;;2.88;2.67;;;;;;;14.69;60.44;98667.88;3510082;28;20084;-74
2021/05/01 02:44:25;;;;;;;3.08;2.85;;;;;;;14.64;60.01;98662.44;3510497;28;20044;-74
2021/05/01 02:46:05;;;;;;;4.13;3.03;;;;;;;14.63;60.40;98672.34;3508487;28;20078;-73
2021/05/01 02:47:47;;;;;;;4.18;3.78;;;;;;;14.64;60.47;98668.63;3510268;28;20044;-74
2021/05/01 02:49:28;;;;;;;5.50;3.38;;;;;;;14.67;60.26;98673.50;3510163;28;20040;-74
2021/05/01 02:51:09;;;;;;;4.57;3.20;;;;;;;14.66;60.12;98661.13;3509958;28;20054;-74
2021/05/01 02:52:49;;;;;;;5.30;4.05;;;;;;;14.64;59.93;98673.16;3510386;28;20040;-73
2021/05/01 02:54:30;;;;;;;3.63;3.33;;;;;;;14.65;59.99;98678.28;3510381;28;20047;-75
2021/05/01 02:56:11;;;;;;;3.75;3.42;;;;;;;14.57;59.90;98689.44;3510160;28;20046;-76
2021/05/01 02:57:52;;;;;;;4.70;3.72;;;;;;;14.51;59.88;98685.03;3510534;28;20134;-76
2021/05/01 02:59:33;;;;;;;3.80;2.97;;;;;;;14.51;59.99;98691.22;3509046;28;20043;-74
2021/05/01 03:01:13;;;;;;;4.38;3.28;;;;;;;14.53;60.02;98696.34;3509502;28;20313;-74
2021/05/01 03:02:54;;;;;;;4.30;3.72;;;;;;;14.54;59.86;98697.97;3510582;28;20884;-74
2021/05/01 03:04:35;;;;;;;3.97;3.57;;;;;;;14.56;60.14;98701.22;3508990;28;20098;-74
2021/05/01 03:06:16;;;;;;;4.25;3.28;;;;;;;14.56;59.90;98703.88;3509003;28;20560;-73
2021/05/01 03:07:56;;;;;;;3.30;3.00;;;;;;;14.56;59.84;98698.53;3509845;28;20043;-74
2021/05/01 03:09:38;;;;;;;3.78;3.22;;;;;;;14.55;60.00;98699.59;3510255;28;20527;-75
2021/05/01 03:11:19;;;;;;;4.75;2.85;;;;;;;14.65;59.99;98707.78;3510000;28;20043;-74
2021/05/01 03:13:00;;;;;;;4.35;3.28;;;;;;;14.66;59.85;98709.41;3509742;28;20063;-75
2021/05/01 03:14:40;;;;;;;4.75;3.22;;;;;;;14.68;59.66;98715.34;3509863;28;20059;-73
2021/05/01 03:16:21;;;;;;;3.63;3.33;;;;;;;14.66;59.71;98720.13;3509481;28;20044;-73
2021/05/01 03:18:02;;;;;;;3.33;3.03;;;;;;;14.66;59.69;98725.50;3509556;28;20043;-74
2021/05/01 03:19:43;;;;;;;4.32;3.05;;;;;;;14.65;59.53;98715.03;3509674;28;20040;-74
2021/05/01 03:21:23;;;;;;;4.30;3.47;;;;;;;14.62;59.66;98713.66;3509932;28;20065;-74
2021/05/01 03:23:07;;;;;;;5.90;3.42;;;;;;;14.61;59.69;98734.31;3508518;28;20036;-73
2021/05/01 03:24:48;;;;;;;4.68;4.20;;;;;;;14.57;59.74;98737.72;3509239;28;20028;-75
2021/05/01 03:26:29;;;;;;;5.55;4.20;;;;;;;14.47;59.59;98727.59;3509885;28;20520;-75
2021/05/01 03:28:09;;;;;;;3.08;2.88;;;;;;;14.46;60.06;98720.63;3509693;28;20044;-76
2021/05/01 03:29:50;;;;;;;5.15;3.47;;;;;;;14.49;60.06;98735.41;3510064;28;20133;-73
2021/05/01 03:31:32;;;;;;;3.50;3.20;;;;;;;14.48;60.17;98723.88;3494545;28;20064;-74
2021/05/01 03:33:12;;;;;;;3.85;2.95;;;;;;;14.43;59.96;98726.47;3506497;28;21128;-73
2021/05/01 03:34:54;;;;;;;3.40;3.10;;;;;;;14.48;60.22;98733.75;3509454;28;20032;-75
2021/05/01 03:36:35;;;;;;;6.70;3.10;;;;;;;14.50;60.09;98739.69;3510565;28;20624;-75
2021/05/01 03:38:17;;;;;;;3.53;3.08;;;;;;;14.47;59.88;98732.97;3511399;28;20048;-74
2021/05/01 03:39:58;;;;;;;8.35;3.13;;;;;;;14.54;60.14;98738.19;3514878;28;20052;-75
2021/05/01 03:41:39;;;;;;;3.58;3.28;;;;;;;14.53;59.89;98747.28;3513470;28;20039;-74
2021/05/01 03:43:20;;;;;;;3.20;2.92;;;;;;;14.50;59.84;98755.78;3511731;28;20040;-74
2021/05/01 03:45:02;;;;;;;;;;;;;;;14.56;59.64;98758.34;3513693;28;20143;-75
2021/05/01 03:46:42;;;;;;;4.22;3.28;;;;;;;14.45;60.00;98761.06;3512113;28;20332;-75
2021/05/01 03:48:23;;;;;;;5.97;2.95;;;;;;;14.48;60.00;98766.78;3512085;28;20032;-74
2021/05/01 03:50:07;;;;;;;3.03;2.25;;;;;;;14.49;60.16;98767.59;3510159;28;20032;-75
2021/05/01 03:51:48;;;;;;;5.70;3.63;;;;;;;14.43;59.87;98771.22;3509209;28;20155;-75
2021/05/01 03:53:29;;;;;;;3.80;3.40;;;;;;;14.39;59.75;98769.03;3509274;28;20068;-74
2021/05/01 03:55:10;;;;;;;5.55;2.95;;;;;;;14.45;59.88;98779.84;3508836;28;20036;-75
2021/05/01 03:56:50;;;;;;;4.13;3.70;;;;;;;14.43;59.84;98779.25;3506636;28;20115;-73
2021/05/01 03:58:32;;;;;;;;;;;;;;;14.52;59.79;98783.97;3509696;28;20138;-71
2021/05/01 04:00:15;;;;;;;3.20;2.90;;;;;;;14.45;59.96;98787.88;3510014;28;20447;-72
2021/05/01 04:01:56;;;;;;;3.83;2.90;;;;;;;14.49;60.18;98794.41;3509964;28;20448;-72
2021/05/01 04:03:37;;;;;;;3.28;2.90;;;;;;;14.52;59.91;98800.06;3509335;28;20052;-74
2021/05/01 04:05:18;;;;;;;12.93;3.10;;;;;;;14.46;59.88;98801.06;3509943;28;20044;-78
2021/05/01 04:06:59;;;;;;;3.70;2.63;;;;;;;14.44;59.99;98813.06;3509454;28;20068;-74
2021/05/01 04:08:40;;;;;;;6.90;3.40;;;;;;;14.43;60.18;98806.06;3508742;28;20047;-74
2021/05/01 04:10:20;;;;;;;7.10;3.35;;;;;;;14.47;60.36;98808.03;3509259;28;20043;-74
2021/05/01 04:12:01;;;;;;;3.53;3.22;;;;;;;14.48;60.36;98823.06;3508655;28;20054;-72
2021/05/01 04:13:50;;;;;;;4.85;2.97;;;;;;;14.47;60.06;98826.78;3511647;28;20116;-75
2021/05/01 04:15:31;;;;;;;3.13;2.83;;;;;;;14.47;59.98;98823.31;3512282;28;20516;-73
2021/05/01 04:17:12;;;;;;;8.15;3.08;;;;;;;14.44;60.59;98821.91;3511483;28;20058;-72
2021/05/01 04:18:53;;;;;;;6.32;3.10;;;;;;;14.46;60.57;98830.53;3508020;28;20412;-73
2021/05/01 04:20:33;;;;;;;3.42;2.95;;;;;;;14.49;60.63;98821.19;3511277;28;20125;-74
2021/05/01 04:22:17;;;;;;;3.30;3.10;;;;;;;14.47;60.60;98832.16;3512529;28;20039;-72
2021/05/01 04:23:58;;;;;;;5.15;2.88;;;;;;;14.48;60.51;98828.44;3512308;28;20040;-73
2021/05/01 04:25:39;;;;;;;4.63;3.25;;;;;;;14.47;60.41;98817.94;3511219;28;20108;-74
2021/05/01 04:27:24;;;;;;;4.80;2.35;;;;;;;14.53;60.13;98828.56;3511576;28;20039;-74
2021/05/01 04:29:05;;;;;;;5.75;2.70;;;;;;;14.53;60.31;98828.56;3512052;28;20116;-75
2021/05/01 04:30:46;;;;;;;3.25;2.95;;;;;;;14.48;60.26;98831.13;3512096;28;20039;-72
2021/05/01 04:32:27;;;;;;;2.92;2.72;;;;;;;14.44;60.40;98819.25;3511778;28;20085;-73
2021/05/01 04:34:07;;;;;;;6.13;3.05;;;;;;;14.39;60.37;98849.44;3512440;28;20070;-72
2021/05/01 04:35:48;;;;;;;2.58;2.00;;;;;;;14.50;61.26;98846.94;3512021;28;20040;-73
2021/05/01 04:37:29;;;;;;;2.53;1.50;;;;;;;14.75;60.93;98852.78;3510451;28;20142;-72
2021/05/01 04:39:10;;;;;;;1.75;1.40;;;;;;;15.03;60.32;98869.91;3511714;28;20032;-73
2021/05/01 04:40:51;;;;;;;1.88;1.25;;;;;;;15.27;59.56;98860.59;3512184;28;20151;-72
2021/05/01 04:42:32;;;;;;;1.40;1.30;;;;;;;15.47;58.85;98856.59;3510804;28;20066;-73
2021/05/01 04:44:13;;;;;;;2.95;1.17;;;;;;;15.53;58.04;98855.59;3512488;28;20123;-73
2021/05/01 04:45:54;;;;;;;2.20;1.30;;;;;;;15.58;57.54;98873.66;3511083;28;20036;-73
2021/05/01 04:47:35;;;;;;;;;;;;;;;15.49;57.69;98863.34;3511063;28;20036;-75
2021/05/01 04:49:16;;;;;;;2.17;1.30;;;;;;;15.43;57.41;98883.13;3507901;28;19912;-73
2021/05/01 04:50:59;;;;;;;3.33;1.30;;;;;;;15.26;57.22;98885.84;3508381;28;20106;-73
2021/05/01 04:52:39;;;;;;;2.17;1.00;;;;;;;15.01;57.34;98883.53;3508200;28;20056;-73
2021/05/01 04:54:20;;;;;;;1.67;0.98;;;;;;;14.93;57.71;98891.19;3507792;28;20270;-74
2021/05/01 04:56:01;;;;;;;1.48;1.38;;;;;;;14.89;57.74;98898.09;3511533;28;20131;-75
2021/05/01 04:57:43;;;;;;;2.17;1.33;;;;;;;14.78;57.34;98892.53;3510407;28;20115;-74
2021/05/01 04:59:24;;;;;;;1.30;1.20;;;;;;;14.67;57.14;98898.78;3508543;28;20126;-74
2021/05/01 05:01:05;;;;;;;1.67;1.40;;;;;;;14.44;57.34;98872.84;3511862;28;20043;-73
2021/05/01 05:02:46;;;;;;;5.05;1.20;;;;;;;14.54;57.34;98889.16;3497414;28;20114;-73
2021/05/01 05:04:27;;;;;;;1.27;1.05;;;;;;;14.57;57.37;98899.41;3508987;28;20096;-75
2021/05/01 05:06:08;;;;;;;2.35;1.10;;;;;;;14.61;57.65;98899.72;3512252;28;20032;-75
2021/05/01 05:07:50;;;;;;;1.38;1.27;;;;;;;14.74;57.61;98912.88;3511646;28;20044;-73
2021/05/01 05:09:30;;;;;;;1.25;1.15;;;;;;;14.79;57.35;98917.50;3512061;28;20410;-73
2021/05/01 05:11:11;;;;;;;1.20;1.10;;;;;;;14.84;57.62;98914.91;3512055;28;20098;-73
2021/05/01 05:12:52;;;;;;;1.70;1.23;;;;;;;14.93;57.80;98923.38;3511333;28;20032;-73
2021/05/01 05:14:32;;;;;;;0.80;0.80;;;;;;;14.96;57.22;98922.91;3511801;28;20036;-76
2021/05/01 05:16:13;;;;;;;1.10;0.95;;;;;;;14.98;57.08;98928.84;3511142;28;20127;-74
2021/05/01 05:17:54;;;;;;;2.50;0.98;;;;;;;15.12;57.21;98929.34;3511508;28;20093;-71
2021/05/01 05:19:35;;;;;;;1.20;1.10;;;;;;;15.21;56.57;98928.69;3511787;28;20135;-74
2021/05/01 05:21:15;;;;;;;0.80;0.80;;;;;;;15.26;55.47;98934.16;3511256;28;20043;-75
2021/05/01 05:22:56;;;;;;;1.98;0.93;;;;;;;15.30;55.48;98939.03;3511018;28;20028;-74
2021/05/01 05:24:38;;;;;;;2.08;1.08;;;;;;;15.31;55.38;98929.91;3511231;28;20066;-71
2021/05/01 05:26:19;;;;;;;1.63;0.80;;;;;;;15.44;55.83;98941.16;3510907;28;20097;-73
2021/05/01 05:28:00;;;;;;;2.22;1.00;;;;;;;15.64;55.81;98937.97;3511310;28;20044;-73
2021/05/01 05:29:47;;;;;;;3.78;1.08;;;;;;;15.82;55.42;98936.88;3511702;28;20126;-73
2021/05/01 05:31:28;;;;;;;11.88;3.05;;;;;;;15.97;54.79;98943.56;3510620;28;20573;-70
2021/05/01 05:33:08;;;;;;;1.55;1.33;;;;;;;16.04;54.63;98954.94;3510870;28;20047;-70
2021/05/01 05:34:50;;;;;;;1.30;1.20;;;;;;;16.11;54.05;98956.38;3511804;28;20048;-73
2021/05/01 05:36:31;;;;;;;2.78;0.98;;;;;;;16.11;53.34;98950.22;3511469;28;20040;-73
2021/05/01 05:38:11;;;;;;;4.53;1.13;;;;;;;16.06;52.90;98959.00;3511818;28;20456;-71
2021/05/01 05:39:53;;;;;;;1.98;1.00;;;;;;;16.10;54.05;98960.13;3511467;28;20055;-74
2021/05/01 05:41:34;;;;;;;0.77;0.77;;;;;;;16.17;53.21;98967.22;3511360;28;20078;-72
2021/05/01 05:43:14;;;;;;;0.82;0.82;;;;;;;16.14;52.84;98968.53;3511310;28;20044;-73
2021/05/01 05:44:55;;;;;;;2.25;1.00;;;;;;;16.11;52.66;98964.44;3511800;28;20036;-73
2021/05/01 05:46:36;;;;;;;4.28;1.17;;;;;;;16.01;52.43;98961.63;3511661;28;20043;-72
2021/05/01 05:48:17;;;;;;;2.13;1.13;;;;;;;16.02;52.29;98978.56;3511601;28;20047;-73
2021/05/01 05:49:57;;;;;;;1.15;1.05;;;;;;;15.92;51.87;98974.66;3510617;28;20423;-74
2021/05/01 05:51:38;;;;;;;1.70;1.50;;;;;;;15.86;51.52;98991.78;3507320;28;20052;-71
2021/05/01 05:53:19;;;;;;;1.67;1.33;;;;;;;15.78;51.81;98994.88;3507828;28;20097;-73
2021/05/01 05:55:01;;;;;;;1.92;1.00;;;;;;;15.75;51.75;98991.84;3511094;28;20036;-73
2021/05/01 05:56:42;;;;;;;1.88;1.25;;;;;;;15.74;51.59;98993.72;3496508;28;20044;-72
2021/05/01 05:58:23;;;;;;;3.13;1.08;;;;;;;15.89;51.62;98999.34;3492967;28;20072;-72
2021/05/01 06:00:06;;;;;;;1.48;1.38;;;;;;;15.96;51.45;99006.44;3506567;28;20036;-72
2021/05/01 06:01:52;;;;;;;1.90;1.30;;;;;;;16.00;51.36;99008.38;3481759;28;20037;-74
2021/05/01 06:03:34;;;;;;;1.20;1.10;;;;;;;16.02;50.82;99011.63;3495155;28;20122;-73
2021/05/01 06:05:35;;;;;;;1.20;1.10;;;;;;;16.18;51.23;99014.53;3496273;28;20099;-72
2021/05/01 06:07:20;;;;;;;3.50;1.23;;;;;;;16.30;50.52;99012.56;3496879;28;20056;-72
2021/05/01 06:09:03;;;;;;;3.15;1.40;;;;;;;16.35;50.34;99015.31;3497226;28;20411;-72
2021/05/01 06:10:44;;;;;;;1.65;1.55;;;;;;;16.41;50.03;99030.44;3497224;28;20154;-73
2021/05/01 06:12:27;;;;;;;1.33;1.23;;;;;;;16.50;49.71;99036.22;3508939;28;20032;-73
2021/05/01 06:14:09;;;;;;;1.50;1.30;;;;;;;16.58;49.16;99031.22;3511409;28;20509;-75
2021/05/01 06:15:54;;;;;;;2.13;1.77;;;;;;;16.66;48.87;99029.16;3499294;28;20048;-73
2021/05/01 06:17:36;;;;;;;1.65;1.35;;;;;;;16.83;48.63;99048.78;3497060;28;20047;-72
2021/05/01 06:19:17;;;;;;;3.50;1.85;;;;;;;16.96;48.45;99048.38;3497431;28;20090;-72
2021/05/01 06:20:57;;;;;;;29.95;21.23;;;;;;;17.00;48.26;99054.88;3496109;28;20036;-73
2021/05/01 06:22:39;;;;;;;9.32;7.25;;;;;;;17.05;47.98;99045.25;3492959;28;20490;-72
2021/05/01 06:24:20;;;;;;;5.30;4.13;;;;;;;16.99;47.78;99047.88;3496919;28;20044;-73
2021/05/01 06:26:02;;;;;;;2.47;2.22;;;;;;;16.94;47.60;99052.41;3504719;28;20470;-73
2021/05/01 06:27:43;;;;;;;2.10;1.92;;;;;;;16.99;47.65;99052.47;3506814;28;20061;-72
2021/05/01 06:29:26;;;;;;;1.55;1.23;;;;;;;17.20;47.54;99053.47;3510904;28;20048;-73
2021/05/01 06:31:08;;;;;;;1.92;1.80;;;;;;;17.43;47.03;99066.66;3510927;28;20044;-74
2021/05/01 06:32:50;;;;;;;2.58;1.48;;;;;;;17.66;46.73;99060.13;3511105;28;20067;-73
2021/05/01 06:34:32;;;;;;;1.52;1.20;;;;;;;17.87;45.92;99058.44;3509576;28;20035;-73
2021/05/01 06:36:13;;;;;;;;;;;;;;;18.13;46.35;99064.00;3510320;28;20456;-72
2021/05/01 06:37:53;;;;;;;1.73;1.38;;;;;;;18.23;45.01;99072.19;3509410;28;19941;-74
2021/05/01 06:39:36;;;;;;;2.47;1.50;;;;;;;18.38;44.53;99073.31;3499903;28;20048;-73
2021/05/01 06:41:18;;;;;;;3.22;1.52;;;;;;;18.50;44.24;99080.16;3496872;28;20040;-73
2021/05/01 06:43:06;;;;;;;1.50;1.40;;;;;;;18.67;43.13;99082.69;3504167;28;20126;-73
2021/05/01 06:44:50;;;;;;;1.92;1.52;;;;;;;18.80;42.86;99081.41;3510176;28;20414;-73
2021/05/01 06:46:33;;;;;;;1.92;1.20;;;;;;;18.90;42.38;99086.88;3510542;28;20036;-74
2021/05/01 06:48:21;;;;;;;1.58;1.30;;;;;;;19.06;41.98;99090.44;3510915;28;20459;-73
2021/05/01 06:50:10;;;;;;;8.45;1.85;;;;;;;19.20;41.92;99088.03;3508504;28;20047;-73
2021/05/01 06:51:51;;;;;;;1.92;1.30;;;;;;;19.35;41.57;99095.38;3510292;28;20055;-73
2021/05/01 06:53:34;;;;;;;1.85;1.25;;;;;;;19.48;40.70;99094.03;3508234;28;20434;-73
2021/05/01 06:55:19;;;;;;;2.63;1.10;;;;;;;19.60;39.95;99094.63;3493070;28;20067;-72
2021/05/01 06:57:00;;;;;;;1.25;1.00;;;;;;;19.65;40.27;99099.22;3496161;28;20040;-73
2021/05/01 06:58:42;;;;;;;1.33;1.23;;;;;;;19.77;40.27;99097.06;3510506;28;20067;-73
2021/05/01 07:00:24;;;;;;;11.32;1.88;;;;;;;19.87;40.17;99107.91;3510692;28;20040;-72
2021/05/01 07:02:05;;;;;;;1.58;1.40;;;;;;;19.93;39.92;99089.78;3506962;28;20054;-72
2021/05/01 07:03:49;;;;;;;2.00;1.55;;;;;;;20.02;39.63;99102.50;3498708;28;20356;-72
2021/05/01 07:05:33;;;;;;;2.05;1.35;;;;;;;20.03;39.96;99109.53;3495244;28;20041;-74
2021/05/01 07:07:14;;;;;;;2.72;1.25;;;;;;;20.05;39.83;99111.97;3497096;28;20040;-71
2021/05/01 07:08:59;;;;;;;2.47;1.40;;;;;;;20.16;39.72;99118.19;3502123;28;20036;-73
2021/05/01 07:10:41;;;;;;;1.35;1.05;;;;;;;20.27;40.00;99125.22;3500416;28;20052;-73
2021/05/01 07:12:23;;;;;;;2.57;1.40;;;;;;;20.45;39.63;99130.06;3499829;28;20039;-74
2021/05/01 07:14:04;;;;;;;1.63;1.52;;;;;;;20.52;38.77;99123.56;3503213;28;20064;-73
2021/05/01 07:15:45;;;;;;;1.63;1.10;;;;;;;20.58;38.74;99125.22;3503177;28;20499;-74
2021/05/01 07:17:31;;;;;;;2.38;1.10;;;;;;;20.65;38.43;99121.13;3502294;28;20517;-73
2021/05/01 07:19:12;;;;;;;2.50;1.42;;;;;;;20.77;38.10;99128.94;3497043;28;20031;-74
2021/05/01 07:20:59;;;;;;;1.92;1.10;;;;;;;20.83;37.49;99119.72;3503306;28;20406;-73
2021/05/01 07:22:41;;;;;;;4.27;1.50;;;;;;;20.96;37.74;99131.03;3503804;28;20067;-74
2021/05/01 07:24:23;;;;;;;2.80;1.20;;;;;;;21.03;37.13;99126.13;3504073;28;20078;-74
2021/05/01 07:26:05;;;;;;;3.20;1.70;;;;;;;21.19;37.03;99130.41;3503411;28;20043;-72
2021/05/01 07:28:14;;;;;;;2.30;0.95;;;;;;;21.46;37.46;99131.94;3500980;28;20044;-72
2021/05/01 07:30:05;;;;;;;3.28;1.40;;;;;;;21.63;36.96;99142.41;3496946;28;20044;-74
2021/05/01 07:31:46;;;;;;;2.08;1.10;;;;;;;21.64;36.96;99144.03;3503397;28;20071;-74
2021/05/01 07:33:30;;;;;;;1.10;1.00;;;;;;;21.61;36.19;99155.41;3508465;28;20043;-72
2021/05/01 07:35:12;;;;;;;2.97;1.33;;;;;;;21.51;36.25;99143.56;3502831;28;20043;-72
2021/05/01 07:36:55;;;;;;;6.85;1.42;;;;;;;21.61;35.92;99156.25;3508490;28;20522;-74
2021/05/01 07:38:36;;;;;;;1.55;1.30;;;;;;;21.69;36.11;99149.44;3505996;28;20067;-72
2021/05/01 07:40:23;;;;;;;4.32;1.48;;;;;;;21.85;35.85;99148.22;3493143;28;20109;-73
2021/05/01 07:42:16;;;;;;;4.68;1.17;;;;;;;22.02;35.54;99158.69;3503999;28;20055;-75
2021/05/01 07:43:58;;;;;;;2.22;1.15;;;;;;;22.09;35.33;99156.44;3503861;28;20032;-73
2021/05/01 07:45:39;;;;;;;1.42;1.08;;;;;;;22.16;35.00;99162.38;3502075;28;20039;-72
2021/05/01 07:47:23;;;;;;;2.97;0.93;;;;;;;22.25;34.53;99161.78;3502347;28;20044;-72
2021/05/01 07:49:06;;;;;;;2.70;1.33;;;;;;;22.28;34.40;99161.22;3503358;28;20572;-74
2021/05/01 07:50:47;;;;;;;1.58;1.13;;;;;;;22.35;34.49;99165.22;3502789;28;20062;-74
2021/05/01 07:52:30;;;;;;;1.42;1.10;;;;;;;22.46;33.90;99162.41;3502003;28;20063;-74
2021/05/01 07:54:12;;;;;;;2.33;1.30;;;;;;;22.41;33.61;99161.38;3504740;28;20702;-74
2021/05/01 07:55:53;;;;;;;1.15;0.93;;;;;;;22.50;33.91;99174.34;3503496;28;20491;-72
2021/05/01 07:57:34;;;;;;;2.80;0.87;;;;;;;22.61;34.02;99163.09;3506837;28;20119;-72
2021/05/01 07:59:14;;;;;;;0.93;0.90;;;;;;;22.78;33.28;99159.13;3504034;28;20487;-72
2021/05/01 08:00:55;;;;;;;3.03;0.90;;;;;;;23.00;33.28;99161.34;3501517;28;20127;-73
2021/05/01 08:02:36;;;;;;;4.67;1.50;;;;;;;23.15;33.19;99161.16;3506614;28;20131;-73